Time;durP1;ratioP1;P1;durP2;ratioP2;P2;SDS_P1;SDS_P2;PMS_P1;PMS_P2;Temp;Humidity;BMP_temperature;BMP_pressure;BME280_temperature;BME280_humidity;BME280_pressure;Samples;Min_cycle;Max_cycle;Signal;HPM_P1;HPM_P2
2023/04/23 00:01:40;;;;;;;15.40;10.25;;;;;;;13.33;52.51;100417.63;4975761;28;20041;-52
2023/04/23 00:04:07;;;;;;;20.27;11.00;;;;;;;13.37;52.27;100413.84;4975287;28;20317;-52
2023/04/23 00:06:33;;;;;;;15.60;10.90;;;;;;;13.42;52.93;100405.59;4989831;28;20065;-52
2023/04/23 00:09:00;;;;;;;17.35;10.25;;;;;;;13.38;52.70;100402.28;4975266;28;20041;-52
2023/04/23 00:11:26;;;;;;;12.68;9.02;;;;;;;13.38;52.40;100404.94;4976840;28;20029;-52
2023/04/23 00:13:51;;;;;;;18.50;9.75;;;;;;;13.42;52.57;100400.31;4977361;28;20070;-52
2023/04/23 00:16:18;;;;;;;14.90;9.48;;;;;;;13.42;52.13;100405.59;4981002;28;20133;-52
2023/04/23 00:18:44;;;;;;;13.23;8.90;;;;;;;13.46;51.88;100400.94;4994018;28;20042;-52
2023/04/23 00:21:09;;;;;;;16.33;8.98;;;;;;;13.55;51.05;100397.69;4995394;28;20057;-52
2023/04/23 00:23:35;;;;;;;19.85;9.73;;;;;;;13.61;51.43;100392.00;4995843;28;20399;-52
2023/04/23 00:26:00;;;;;;;17.40;9.75;;;;;;;13.62;50.70;100395.50;4994068;28;20406;-52
2023/04/23 00:28:25;;;;;;;16.33;9.23;;;;;;;13.66;51.53;100397.84;4995075;28;20014;-52
2023/04/23 00:30:51;;;;;;;15.13;8.70;;;;;;;13.82;50.15;100394.22;4994816;28;20033;-53
2023/04/23 00:33:16;;;;;;;15.90;7.65;;;;;;;14.04;49.12;100396.31;4996991;28;20058;-52
2023/04/23 00:35:41;;;;;;;16.60;8.68;;;;;;;14.10;49.43;100396.78;4998769;28;20030;-52
2023/04/23 00:38:07;;;;;;;20.58;9.30;;;;;;;14.13;49.55;100385.09;4995998;28;20519;-52
2023/04/23 00:40:32;;;;;;;15.63;8.00;;;;;;;14.16;50.48;100389.38;4995551;28;20088;-52
2023/04/23 00:42:58;;;;;;;16.65;8.20;;;;;;;14.11;51.96;100387.00;4991305;28;20095;-52
2023/04/23 00:45:23;;;;;;;9.93;7.75;;;;;;;13.93;54.27;100395.22;4975237;28;20073;-52
2023/04/23 00:47:49;;;;;;;15.27;8.35;;;;;;;13.78;53.75;100385.63;4975123;28;20368;-52
2023/04/23 00:50:14;;;;;;;13.23;8.38;;;;;;;13.67;54.93;100390.78;4975431;28;20405;-52
2023/04/23 00:52:40;;;;;;;17.77;8.27;;;;;;;13.60;56.42;100392.97;4975474;28;20106;-52
2023/04/23 00:55:07;;;;;;;13.35;8.90;;;;;;;13.53;56.63;100391.63;4975822;28;20038;-51
2023/04/23 00:57:35;;;;;;;15.30;9.10;;;;;;;13.28;58.25;100387.84;4975447;28;20026;-52
2023/04/23 01:00:02;;;;;;;15.23;8.82;;;;;;;12.98;60.98;100391.47;4976723;28;20049;-51
2023/04/23 01:02:29;;;;;;;14.40;8.55;;;;;;;12.80;62.72;100387.25;4974779;28;20104;-51
2023/04/23 01:04:55;;;;;;;17.95;9.63;;;;;;;12.75;62.36;100384.03;4976748;28;20027;-51
2023/04/23 01:07:21;;;;;;;12.38;8.57;;;;;;;12.72;64.16;100384.22;4993395;28;20037;-51
2023/04/23 01:09:47;;;;;;;20.30;9.60;;;;;;;12.59;65.29;100382.31;4992418;28;20336;-51
2023/04/23 01:12:14;;;;;;;14.88;9.27;;;;;;;12.48;66.39;100387.41;4973990;28;20439;-51
2023/04/23 01:14:40;;;;;;;15.70;10.60;;;;;;;12.24;69.09;100385.28;4974123;28;20046;-51
2023/04/23 01:17:07;;;;;;;15.45;10.38;;;;;;;12.18;69.13;100390.06;4974546;28;20530;-51
2023/04/23 01:19:32;;;;;;;18.08;12.13;;;;;;;11.94;72.12;100394.03;4974129;28;20469;-51
2023/04/23 01:22:00;;;;;;;17.52;11.68;;;;;;;11.92;72.61;100393.28;4974853;28;20039;-51
2023/04/23 01:24:26;;;;;;;18.52;11.13;;;;;;;11.80;74.65;100391.28;4981770;28;20042;-51
2023/04/23 01:26:52;;;;;;;15.45;11.10;;;;;;;11.75;74.92;100385.38;4976854;28;20031;-52
2023/04/23 01:29:19;;;;;;;14.82;9.65;;;;;;;11.92;74.52;100380.03;4973907;28;20341;-52
2023/04/23 01:31:44;;;;;;;15.05;10.20;;;;;;;11.93;75.29;100376.44;4973534;28;20069;-53
2023/04/23 01:34:10;;;;;;;20.30;10.32;;;;;;;11.93;76.40;100376.44;4973683;28;20047;-51
2023/04/23 01:36:36;;;;;;;14.82;9.90;;;;;;;12.03;76.79;100375.91;4974535;28;20411;-52
2023/04/23 01:39:01;;;;;;;15.38;10.35;;;;;;;12.03;76.94;100370.59;4972993;28;20042;-51
2023/04/23 01:41:27;;;;;;;16.98;9.68;;;;;;;12.05;77.91;100364.28;4973700;28;20058;-52
2023/04/23 01:43:52;;;;;;;15.10;10.80;;;;;;;12.02;79.35;100368.91;4974670;28;20352;-52
2023/04/23 01:46:19;;;;;;;21.50;11.60;;;;;;;11.99;79.71;100369.09;4974414;28;20027;-51
2023/04/23 01:48:45;;;;;;;15.60;12.27;;;;;;;12.00;79.70;100365.47;4975440;28;20035;-51
2023/04/23 01:51:10;;;;;;;17.77;12.57;;;;;;;11.95;79.00;100368.41;4974307;28;20364;-51
2023/04/23 01:53:36;;;;;;;13.25;11.27;;;;;;;11.95;78.59;100371.06;4973300;28;20030;-51
2023/04/23 01:56:01;;;;;;;17.17;12.65;;;;;;;11.95;79.13;100373.72;4974510;28;20038;-51
2023/04/23 01:58:26;;;;;;;15.43;10.93;;;;;;;11.89;78.28;100368.72;4974224;28;20118;-51
2023/04/23 02:00:52;;;;;;;15.82;11.57;;;;;;;11.90;78.18;100365.13;4974049;28;20042;-52
2023/04/23 02:03:17;;;;;;;16.92;10.75;;;;;;;11.89;78.52;100368.72;4974215;28;20054;-51
2023/04/23 02:05:43;;;;;;;23.45;11.50;;;;;;;11.91;78.99;100366.84;4981831;28;20447;-51
2023/04/23 02:08:09;;;;;;;18.52;11.93;;;;;;;11.93;79.08;100365.84;4996194;28;20049;-51
2023/04/23 02:10:34;;;;;;;16.25;12.23;;;;;;;11.94;79.07;100364.91;4997669;28;20320;-51
2023/04/23 02:13:01;;;;;;;15.48;12.25;;;;;;;11.90;79.35;100368.66;4996224;28;20107;-51
2023/04/23 02:15:26;;;;;;;26.73;12.50;;;;;;;11.89;79.16;100369.56;4976851;28;20093;-51
2023/04/23 02:17:52;;;;;;;18.30;12.02;;;;;;;11.87;79.09;100371.47;4977884;28;20054;-51
2023/04/23 02:20:18;;;;;;;16.27;11.73;;;;;;;11.87;78.68;100360.88;4977802;28;20065;-51
2023/04/23 02:22:44;;;;;;;22.48;13.30;;;;;;;11.89;78.47;100364.28;4977580;28;20026;-51
2023/04/23 02:25:10;;;;;;;15.45;11.52;;;;;;;11.93;77.68;100371.16;4977475;28;20072;-51
2023/04/23 02:27:36;;;;;;;13.65;10.82;;;;;;;12.08;76.73;100371.19;4978337;28;20457;-51
2023/04/23 02:30:02;;;;;;;24.08;11.52;;;;;;;12.21;75.94;100373.97;4979623;28;20026;-51
2023/04/23 02:32:27;;;;;;;16.73;11.45;;;;;;;12.33;75.22;100370.63;4981334;28;20464;-50
2023/04/23 02:34:53;;;;;;;15.77;10.35;;;;;;;12.51;73.55;100371.31;4977932;28;20499;-50
2023/04/23 02:37:18;;;;;;;17.98;10.05;;;;;;;12.54;73.21;100370.28;4977667;28;20076;-50
2023/04/23 02:39:44;;;;;;;12.77;8.48;;;;;;;12.63;72.25;100370.56;4992643;28;20049;-50
2023/04/23 02:42:10;;;;;;;12.55;8.98;;;;;;;12.73;70.81;100370.88;4977165;28;20042;-50
2023/04/23 02:44:35;;;;;;;13.00;8.35;;;;;;;12.79;70.69;100374.97;4977674;28;20119;-51
2023/04/23 02:47:01;;;;;;;12.18;9.05;;;;;;;12.76;70.22;100365.38;4976899;28;20038;-51
2023/04/23 02:49:27;;;;;;;11.65;8.75;;;;;;;12.81;70.53;100367.75;4976985;28;20038;-51
2023/04/23 02:51:53;;;;;;;13.60;9.13;;;;;;;12.85;69.98;100364.00;4986229;28;20044;-51
2023/04/23 02:54:18;;;;;;;13.25;7.85;;;;;;;12.87;70.43;100361.25;4991842;28;20070;-52
2023/04/23 02:56:44;;;;;;;13.70;8.98;;;;;;;12.85;70.37;100362.19;4983083;28;20030;-53
2023/04/23 02:59:09;;;;;;;17.48;9.82;;;;;;;12.81;70.76;100357.16;4996645;28;20526;-51
2023/04/23 03:01:35;;;;;;;18.95;8.75;;;;;;;12.78;71.65;100354.69;4996681;28;20029;-52
2023/04/23 03:04:02;;;;;;;13.15;8.10;;;;;;;12.70;71.18;100354.31;4977886;28;20064;-51
2023/04/23 03:06:28;;;;;;;14.25;8.63;;;;;;;12.64;71.55;100361.69;4980587;28;20050;-51
2023/04/23 03:08:54;;;;;;;10.43;8.57;;;;;;;12.69;70.84;100363.22;4991772;28;20049;-51
2023/04/23 03:11:21;;;;;;;15.98;7.75;;;;;;;12.70;70.73;100349.00;4983598;28;20818;-51
2023/04/23 03:13:47;;;;;;;13.82;8.57;;;;;;;12.61;70.90;100353.91;4971510;28;20030;-51
2023/04/23 03:16:13;;;;;;;15.00;9.25;;;;;;;12.59;71.36;100347.84;4983658;28;20097;-51
2023/04/23 03:18:39;;;;;;;16.77;9.73;;;;;;;12.56;72.14;100353.34;4982656;28;20054;-51
2023/04/23 03:21:04;;;;;;;12.25;8.05;;;;;;;12.60;71.75;100346.94;4981314;28;20467;-51
2023/04/23 03:23:30;;;;;;;17.30;8.65;;;;;;;12.54;71.48;100344.63;4985483;28;20505;-51
2023/04/23 03:25:56;;;;;;;14.27;8.60;;;;;;;12.53;71.19;100345.56;4970049;28;20038;-51
2023/04/23 03:28:22;;;;;;;13.85;9.20;;;;;;;12.53;71.23;100342.06;4984849;28;20105;-51
2023/04/23 03:30:47;;;;;;;15.73;9.93;;;;;;;12.58;72.24;100340.00;4982038;28;20122;-52
2023/04/23 03:33:13;;;;;;;16.00;9.27;;;;;;;12.69;71.17;100352.63;4981484;28;20612;-52
2023/04/23 03:35:39;;;;;;;15.93;8.10;;;;;;;12.73;70.44;100349.66;4984217;28;20367;-50
2023/04/23 03:38:04;;;;;;;11.43;7.60;;;;;;;12.74;70.14;100345.22;4981413;28;20050;-50
2023/04/23 03:40:30;;;;;;;14.25;8.50;;;;;;;12.84;69.86;100346.34;4982631;28;20133;-50
2023/04/23 03:42:56;;;;;;;11.65;9.18;;;;;;;12.81;70.00;100346.53;4984928;28;20034;-50
2023/04/23 03:45:22;;;;;;;10.70;7.53;;;;;;;12.80;70.16;100350.13;4983013;28;20069;-53
2023/04/23 03:47:47;;;;;;;11.73;8.43;;;;;;;12.65;72.70;100341.31;4985199;28;20098;-50
2023/04/23 03:50:13;;;;;;;13.77;8.30;;;;;;;12.48;72.67;100345.00;4981550;28;20086;-50
2023/04/23 03:52:38;;;;;;;14.07;8.18;;;;;;;12.26;74.24;100345.41;4977977;28;20109;-50
2023/04/23 03:55:04;;;;;;;14.52;8.70;;;;;;;12.13;74.37;100345.31;4982913;28;20142;-50
2023/04/23 03:57:30;;;;;;;12.80;8.30;;;;;;;11.98;75.92;100340.88;4981777;28;20030;-50
2023/04/23 03:59:55;;;;;;;13.70;9.50;;;;;;;11.84;78.17;100339.00;4978966;28;20743;-50
2023/04/23 04:02:21;;;;;;;14.82;9.15;;;;;;;11.83;78.12;100337.28;4983278;28;20029;-49
2023/04/23 04:04:48;;;;;;;12.02;8.82;;;;;;;11.74;78.12;100346.63;4987694;28;20030;-49
2023/04/23 04:07:14;;;;;;;16.17;10.10;;;;;;;11.76;78.58;100340.28;4980734;28;20026;-50
2023/04/23 04:09:39;;;;;;;12.80;9.23;;;;;;;11.67;79.46;100337.31;4981874;28;20613;-50
2023/04/23 04:12:05;;;;;;;13.43;8.40;;;;;;;11.70;79.88;100342.44;4976864;28;20105;-50
2023/04/23 04:14:31;;;;;;;15.40;9.20;;;;;;;11.77;80.09;100341.16;4977151;28;20038;-49
2023/04/23 04:16:56;;;;;;;14.23;8.68;;;;;;;11.69;81.14;100343.41;4966305;28;20143;-49
2023/04/23 04:19:22;;;;;;;13.05;8.23;;;;;;;11.66;81.46;100346.22;4977806;28;20047;-51
2023/04/23 04:21:48;;;;;;;17.55;10.43;;;;;;;11.67;81.74;100342.59;4983062;28;20034;-50
2023/04/23 04:24:13;;;;;;;12.50;9.95;;;;;;;11.69;82.58;100351.34;4955370;28;20049;-50
2023/04/23 04:26:39;;;;;;;16.08;8.38;;;;;;;11.66;82.27;100340.91;4984190;28;20174;-50
2023/04/23 04:29:05;;;;;;;15.32;9.43;;;;;;;11.66;82.88;100354.16;4976824;28;20062;-50
2023/04/23 04:31:31;;;;;;;17.63;8.90;;;;;;;11.73;82.50;100353.69;4981504;28;20037;-50
2023/04/23 04:33:57;;;;;;;12.13;8.38;;;;;;;11.82;81.54;100362.94;4980781;28;20026;-50
2023/04/23 04:36:24;;;;;;;11.65;8.68;;;;;;;11.87;81.03;100360.88;4982817;28;20030;-50
2023/04/23 04:38:50;;;;;;;11.88;7.85;;;;;;;11.93;79.87;100355.25;4979951;28;20573;-49
2023/04/23 04:41:18;;;;;;;16.50;8.65;;;;;;;11.92;80.08;100358.00;4975996;28;20034;-49
2023/04/23 04:43:44;;;;;;;12.43;7.95;;;;;;;11.89;80.69;100347.53;4982807;28;20030;-50
2023/04/23 04:46:10;;;;;;;13.20;8.70;;;;;;;11.88;80.55;100352.00;4980910;28;20100;-50
2023/04/23 04:48:36;;;;;;;16.30;8.82;;;;;;;11.88;80.78;100362.59;4977859;28;20034;-50
2023/04/23 04:51:01;;;;;;;11.65;7.88;;;;;;;11.87;80.95;100344.13;4979733;28;20030;-51
2023/04/23 04:53:27;;;;;;;11.02;8.13;;;;;;;11.93;80.26;100347.31;4982906;28;20031;-51
2023/04/23 04:55:52;;;;;;;15.73;9.38;;;;;;;11.88;80.70;100345.81;4981946;28;20065;-51
2023/04/23 04:58:17;;;;;;;13.55;8.48;;;;;;;11.91;81.06;100351.81;4979442;28;20374;-51
2023/04/23 05:00:43;;;;;;;12.77;8.18;;;;;;;11.87;81.30;100352.94;4986386;28;20046;-50
2023/04/23 05:03:09;;;;;;;14.02;9.20;;;;;;;11.85;81.20;100362.75;4982613;28;20126;-52
2023/04/23 05:05:34;;;;;;;12.43;9.07;;;;;;;11.88;80.80;100362.59;4983290;28;20026;-51
2023/04/23 05:08:01;;;;;;;12.38;9.25;;;;;;;11.83;81.58;100361.97;4983150;28;20037;-50
2023/04/23 05:10:27;;;;;;;14.52;9.13;;;;;;;11.84;81.90;100371.63;4978965;28;20470;-50
2023/04/23 05:12:53;;;;;;;16.38;8.73;;;;;;;11.86;81.15;100364.44;4978908;28;20049;-50
2023/04/23 05:15:18;;;;;;;15.45;9.70;;;;;;;11.83;81.46;100363.78;4981269;28;20034;-50
2023/04/23 05:17:44;;;;;;;11.48;9.00;;;;;;;11.80;82.71;100370.09;4987251;28;20050;-50
2023/04/23 05:20:10;;;;;;;17.65;9.00;;;;;;;11.75;83.34;100366.84;4981099;28;20475;-50
2023/04/23 05:22:40;;;;;;;16.83;9.68;;;;;;;11.75;83.81;100361.56;4980455;28;20118;-50
2023/04/23 05:25:06;;;;;;;12.15;8.80;;;;;;;11.76;82.75;100364.13;4980922;28;20041;-50
2023/04/23 05:27:32;;;;;;;12.68;9.48;;;;;;;11.80;82.24;100369.25;4976992;28;20037;-50
2023/04/23 05:29:59;;;;;;;12.93;8.00;;;;;;;11.82;82.84;100367.34;4982511;28;20382;-50
2023/04/23 05:32:25;;;;;;;13.88;9.52;;;;;;;11.82;83.37;100372.66;4981647;28;20026;-50
2023/04/23 05:34:50;;;;;;;14.18;8.35;;;;;;;11.83;82.92;100375.22;4977601;28;20030;-49
2023/04/23 05:37:15;;;;;;;13.43;8.73;;;;;;;11.85;83.70;100373.34;4980538;28;20049;-49
2023/04/23 05:39:41;;;;;;;13.23;8.73;;;;;;;11.88;84.04;100367.88;4980293;28;20022;-50
2023/04/23 05:42:06;;;;;;;14.43;8.98;;;;;;;11.93;83.44;100373.81;4979971;28;20140;-49
2023/04/23 05:44:31;;;;;;;10.95;7.60;;;;;;;11.98;83.70;100372.66;4980743;28;20030;-49
2023/04/23 05:46:57;;;;;;;12.02;8.75;;;;;;;12.05;84.35;100380.19;4978913;28;20127;-49
2023/04/23 05:49:22;;;;;;;12.70;8.90;;;;;;;12.16;83.38;100381.34;4978776;28;20081;-49
2023/04/23 05:51:47;;;;;;;11.70;8.25;;;;;;;12.17;83.40;100378.59;4980530;28;20113;-49
2023/04/23 05:54:13;;;;;;;13.73;8.38;;;;;;;12.26;83.59;100388.69;4974819;28;20109;-50
2023/04/23 05:56:38;;;;;;;13.98;7.70;;;;;;;12.34;83.41;100385.59;4978947;28;20336;-49
2023/04/23 05:59:05;;;;;;;11.77;8.20;;;;;;;12.45;82.87;100387.59;4978382;28;20121;-50
2023/04/23 06:01:30;;;;;;;13.18;8.27;;;;;;;12.49;82.19;100383.81;4977674;28;20034;-50
2023/04/23 06:03:56;;;;;;;11.40;7.70;;;;;;;12.51;81.04;100381.94;4977519;28;20447;-48
2023/04/23 06:06:21;;;;;;;11.95;7.78;;;;;;;12.53;81.59;100373.88;4978608;28;20117;-49
2023/04/23 06:08:47;;;;;;;11.57;8.10;;;;;;;12.53;80.88;100380.03;4979902;28;20206;-50
2023/04/23 06:11:12;;;;;;;10.05;7.68;;;;;;;12.55;82.25;100377.28;4976818;28;20035;-49
2023/04/23 06:13:39;;;;;;;9.77;7.78;;;;;;;12.55;82.01;100383.44;4979849;28;20046;-48
2023/04/23 06:16:08;;;;;;;12.55;7.78;;;;;;;12.54;82.46;100397.66;4979726;28;20126;-49
2023/04/23 06:18:34;;;;;;;16.40;7.40;;;;;;;12.51;81.56;100397.84;4977876;28;20026;-52
2023/04/23 06:21:03;;;;;;;8.48;7.35;;;;;;;12.49;82.24;100395.28;4979237;28;20328;-50
2023/04/23 06:23:29;;;;;;;13.90;7.88;;;;;;;12.41;80.92;100396.69;4979248;28;20026;-49
2023/04/23 06:25:54;;;;;;;10.00;6.55;;;;;;;12.35;81.84;100391.75;4978777;28;20411;-50
2023/04/23 06:28:20;;;;;;;11.18;7.97;;;;;;;12.25;82.29;100402.88;4979373;28;20060;-49
2023/04/23 06:30:45;;;;;;;10.68;7.82;;;;;;;12.19;83.81;100413.81;4980157;28;20165;-49
2023/04/23 06:33:11;;;;;;;14.63;8.45;;;;;;;12.13;83.83;100408.88;4980885;28;20352;-49
2023/04/23 06:35:36;;;;;;;13.98;8.77;;;;;;;12.05;84.88;100405.81;4981197;28;20453;-49
2023/04/23 06:38:02;;;;;;;11.68;8.57;;;;;;;12.03;85.60;100412.97;4981860;28;20058;-49
2023/04/23 06:40:27;;;;;;;13.45;7.43;;;;;;;11.94;85.82;100404.63;4979197;28;20030;-49
2023/04/23 06:42:52;;;;;;;11.95;8.20;;;;;;;11.93;85.79;100413.53;4979105;28;20039;-49
2023/04/23 06:45:19;;;;;;;13.18;9.40;;;;;;;11.91;86.94;100406.56;4980807;28;20478;-49
2023/04/23 06:47:44;;;;;;;12.52;8.48;;;;;;;11.98;87.18;100404.44;4979449;28;20121;-48
2023/04/23 06:50:10;;;;;;;11.95;9.02;;;;;;;11.97;87.08;100402.75;4978531;28;20023;-48
2023/04/23 06:52:35;;;;;;;12.07;8.70;;;;;;;11.99;87.68;100400.88;4979317;28;20448;-51
2023/04/23 06:55:01;;;;;;;12.20;8.65;;;;;;;11.98;87.11;100409.75;4982653;28;20049;-48
2023/04/23 06:57:27;;;;;;;11.23;8.30;;;;;;;11.98;87.50;100413.25;4986024;28;20931;-50
2023/04/23 06:59:52;;;;;;;14.20;9.35;;;;;;;12.01;87.28;100409.56;4982107;28;20093;-49
2023/04/23 07:02:18;;;;;;;12.15;8.80;;;;;;;12.04;87.85;100409.41;4980664;28;20030;-48
2023/04/23 07:04:43;;;;;;;14.15;9.05;;;;;;;12.00;87.40;100413.16;4983307;28;20026;-48
2023/04/23 07:07:09;;;;;;;11.55;9.05;;;;;;;12.06;88.09;100403.09;4983157;28;20259;-48
2023/04/23 07:09:34;;;;;;;12.48;8.55;;;;;;;12.11;87.48;100400.16;4985180;28;20026;-49
2023/04/23 07:12:01;;;;;;;16.33;9.25;;;;;;;12.02;87.71;100395.41;4967705;28;20125;-49
2023/04/23 07:14:26;;;;;;;11.90;8.48;;;;;;;12.04;87.62;100404.09;4982057;28;20121;-49
2023/04/23 07:16:53;;;;;;;14.20;8.73;;;;;;;12.01;88.16;100394.53;4984847;28;20550;-49
2023/04/23 07:19:19;;;;;;;15.02;8.50;;;;;;;11.94;87.91;100401.97;4995026;28;20030;-49
2023/04/23 07:21:44;;;;;;;13.02;8.20;;;;;;;11.96;88.21;100411.63;4995914;28;20044;-49
2023/04/23 07:24:10;;;;;;;14.18;8.27;;;;;;;11.94;88.33;100409.91;4996156;28;20122;-50
2023/04/23 07:26:35;;;;;;;16.50;8.88;;;;;;;11.94;88.30;100415.22;4992682;28;20406;-50
2023/04/23 07:29:02;;;;;;;13.25;9.48;;;;;;;12.00;88.67;100408.72;4984720;28;20027;-49
2023/04/23 07:31:27;;;;;;;14.20;9.20;;;;;;;12.04;88.74;100410.25;4978029;28;20030;-49
2023/04/23 07:33:55;;;;;;;15.80;9.07;;;;;;;12.04;88.47;100420.00;4991060;28;20035;-50
2023/04/23 07:36:20;;;;;;;15.73;9.80;;;;;;;12.11;88.77;100410.75;4986691;28;20061;-50
2023/04/23 07:38:46;;;;;;;13.38;8.73;;;;;;;12.16;88.82;100408.69;4991738;28;20058;-51
2023/04/23 07:41:11;;;;;;;11.18;9.10;;;;;;;12.27;88.71;100416.03;4995350;28;20034;-50
2023/04/23 07:43:37;;;;;;;15.45;9.65;;;;;;;12.30;87.98;100416.69;4996128;28;20057;-51
2023/04/23 07:46:03;;;;;;;12.23;8.50;;;;;;;12.35;87.73;100412.94;4999338;28;20037;-50
2023/04/23 07:48:29;;;;;;;13.55;9.32;;;;;;;12.41;87.54;100417.88;4992513;28;20070;-50
2023/04/23 07:50:55;;;;;;;14.40;9.55;;;;;;;12.59;88.00;100411.50;4992984;28;20077;-50
2023/04/23 07:53:21;;;;;;;13.30;8.27;;;;;;;12.63;86.78;100417.47;4988137;28;20053;-48
2023/04/23 07:55:47;;;;;;;14.23;9.15;;;;;;;12.61;86.86;100414.91;4993168;28;20081;-49
2023/04/23 07:58:12;;;;;;;9.85;7.95;;;;;;;12.64;86.60;100420.03;4996555;28;20033;-49
2023/04/23 08:00:38;;;;;;;15.63;9.68;;;;;;;12.70;86.29;100423.25;4994174;28;20034;-49
2023/04/23 08:03:03;;;;;;;14.23;9.00;;;;;;;12.66;86.35;100427.88;4994397;28;20053;-49
2023/04/23 08:05:28;;;;;;;15.15;9.90;;;;;;;12.70;86.38;100420.59;4991552;28;20030;-49
2023/04/23 08:07:54;;;;;;;10.30;8.60;;;;;;;12.75;86.15;100426.47;4993959;28;20050;-50
2023/04/23 08:10:19;;;;;;;16.60;8.77;;;;;;;12.84;86.30;100421.47;4996921;28;20034;-50
2023/04/23 08:12:45;;;;;;;14.60;9.57;;;;;;;12.76;85.76;100430.84;4992360;28;20114;-49
2023/04/23 08:15:11;;;;;;;14.90;9.25;;;;;;;12.89;85.35;100423.84;4994403;28;20046;-49
2023/04/23 08:17:36;;;;;;;12.93;9.88;;;;;;;13.01;85.03;100423.13;4992780;28;20042;-49
2023/04/23 08:20:02;;;;;;;13.68;9.20;;;;;;;13.08;85.32;100417.41;4980022;28;20456;-49
2023/04/23 08:22:28;;;;;;;10.82;8.60;;;;;;;12.91;85.18;100424.59;4989817;28;20034;-50
2023/04/23 08:24:53;;;;;;;12.02;8.98;;;;;;;12.89;86.35;100429.16;4985661;28;20367;-49
2023/04/23 08:27:19;;;;;;;12.07;9.48;;;;;;;12.56;86.93;100427.56;4975777;28;20106;-51
2023/04/23 08:29:44;;;;;;;11.48;9.63;;;;;;;12.55;86.66;100433.81;4992400;28;20355;-50
2023/04/23 08:32:10;;;;;;;14.82;9.52;;;;;;;12.56;87.17;100421.44;4995369;28;20041;-50
2023/04/23 08:34:36;;;;;;;13.00;9.32;;;;;;;12.49;87.38;100423.59;4989574;28;20042;-49
2023/04/23 08:37:01;;;;;;;13.57;9.32;;;;;;;12.33;86.86;100436.88;4990264;28;20034;-50
2023/04/23 08:39:27;;;;;;;13.50;9.85;;;;;;;12.32;87.99;100444.91;4988401;28;20037;-49
2023/04/23 08:41:54;;;;;;;13.32;10.20;;;;;;;12.28;87.89;100450.38;4992423;28;20031;-49
2023/04/23 08:44:24;;;;;;;15.20;10.40;;;;;;;12.23;87.51;100449.81;4993390;28;20039;-50
2023/04/23 08:46:52;;;;;;;16.85;11.15;;;;;;;12.14;87.58;100446.81;4981903;28;20046;-51
2023/04/23 08:49:17;;;;;;;15.90;9.98;;;;;;;12.06;87.08;100455.19;4990070;28;20033;-49
2023/04/23 08:51:51;;;;;;;13.43;8.90;;;;;;;11.85;85.94;100458.09;4990548;28;20038;-51
2023/04/23 08:54:37;;;;;;;17.58;10.77;;;;;;;11.73;86.39;100454.31;4986550;28;20359;-49
2023/04/23 08:57:02;;;;;;;11.70;8.35;;;;;;;11.62;85.84;100455.84;4989740;28;20109;-50
2023/04/23 08:59:30;;;;;;;14.65;9.13;;;;;;;11.61;86.79;100462.94;4993468;28;20065;-50
2023/04/23 09:01:56;;;;;;;16.60;10.02;;;;;;;11.56;86.30;100462.34;4991940;28;20038;-49
2023/04/23 09:04:23;;;;;;;13.80;9.90;;;;;;;11.53;86.49;100465.16;4988405;28;20363;-49
2023/04/23 09:06:49;;;;;;;19.42;10.18;;;;;;;11.57;87.51;100470.19;4988525;28;20535;-49
2023/04/23 09:09:15;;;;;;;13.70;8.98;;;;;;;11.49;86.98;100475.06;4982950;28;20114;-50
2023/04/23 09:11:41;;;;;;;15.70;8.68;;;;;;;11.51;87.10;100481.13;4990484;28;20037;-51
2023/04/23 09:14:07;;;;;;;16.45;9.63;;;;;;;11.58;87.72;100481.63;4992614;28;20030;-49
2023/04/23 09:16:33;;;;;;;12.05;7.05;;;;;;;11.54;87.31;100486.25;4988559;28;20043;-49
2023/04/23 09:18:58;;;;;;;9.98;7.47;;;;;;;11.67;87.09;100496.16;4990804;28;20398;-51
2023/04/23 09:21:23;;;;;;;8.32;5.93;;;;;;;11.45;85.08;100485.88;4984895;28;20039;-51
2023/04/23 09:23:51;;;;;;;9.32;5.50;;;;;;;11.39;85.47;100498.50;4976561;28;20030;-48
2023/04/23 09:26:21;;;;;;;6.97;5.32;;;;;;;11.43;85.90;100507.13;4986886;28;20101;-50
2023/04/23 09:28:49;;;;;;;10.15;6.78;;;;;;;11.45;85.93;100502.59;4992616;28;20018;-50
2023/04/23 09:31:16;;;;;;;9.30;6.65;;;;;;;11.31;86.12;100505.13;4992107;28;20414;-50
2023/04/23 09:33:42;;;;;;;11.63;7.38;;;;;;;11.25;85.24;100494.88;4979843;28;20026;-49
2023/04/23 09:36:13;;;;;;;11.18;7.40;;;;;;;11.32;85.49;100491.81;4990910;28;20076;-48
2023/04/23 09:38:40;;;;;;;14.18;8.77;;;;;;;11.38;86.41;100498.59;4978747;28;20435;-49
2023/04/23 09:41:25;;;;;;;14.40;9.60;;;;;;;11.51;85.49;100498.78;4999713;28;20038;-48
2023/04/23 09:43:57;;;;;;;19.13;10.25;;;;;;;11.60;86.20;100502.72;4984980;28;20034;-49
2023/04/23 09:46:36;;;;;;;14.02;9.27;;;;;;;11.70;85.46;100494.22;4990067;28;20075;-48
2023/04/23 09:49:03;;;;;;;15.18;9.65;;;;;;;11.72;84.58;100505.56;4990408;28;20399;-49
2023/04/23 09:51:29;;;;;;;16.05;10.95;;;;;;;11.88;84.36;100500.31;4984542;28;20026;-48
2023/04/23 09:53:55;;;;;;;16.33;11.18;;;;;;;11.64;83.84;100513.06;4984792;28;20043;-49
2023/04/23 09:56:20;;;;;;;19.45;11.80;;;;;;;11.87;84.09;100503.88;4981526;28;20038;-48
2023/04/23 09:58:46;;;;;;;19.38;12.98;;;;;;;12.15;83.60;100507.69;4981513;28;20034;-49
2023/04/23 10:01:14;;;;;;;20.75;13.30;;;;;;;12.45;81.98;100505.06;4986582;28;20754;-48
2023/04/23 10:03:43;;;;;;;20.08;13.60;;;;;;;12.73;79.07;100497.31;4987254;28;20432;-49
2023/04/23 10:06:13;;;;;;;17.77;12.55;;;;;;;13.16;79.28;100497.44;4987209;28;20092;-48
2023/04/23 10:15:04;;;;;;;22.00;14.63;;;;;;;13.20;78.19;100501.59;4983367;28;20072;-50
2023/04/23 10:17:30;;;;;;;23.60;15.90;;;;;;;13.23;76.70;100506.72;4981341;28;20477;-49
2023/04/23 10:19:57;;;;;;;22.00;14.65;;;;;;;13.02;77.58;100509.69;4987646;28;20042;-48
2023/04/23 10:22:24;;;;;;;23.00;14.77;;;;;;;13.12;77.64;100509.16;4972365;28;20198;-49
2023/04/23 10:24:54;;;;;;;22.88;14.95;;;;;;;13.01;78.06;100510.66;4989785;28;20033;-49
2023/04/23 10:27:21;;;;;;;22.97;14.47;;;;;;;13.01;77.31;100510.66;4991059;28;20556;-49
2023/04/23 10:29:47;;;;;;;24.00;15.38;;;;;;;13.03;77.63;100511.41;4987309;28;20030;-50
2023/04/23 10:32:14;;;;;;;22.63;15.50;;;;;;;12.89;78.09;100514.03;4991907;28;20041;-50
2023/04/23 10:34:40;;;;;;;17.00;11.57;;;;;;;12.44;79.22;100518.41;4991477;28;20893;-50
2023/04/23 10:37:07;;;;;;;19.27;13.43;;;;;;;11.97;82.37;100519.31;4994580;28;20037;-50
2023/04/23 10:39:33;;;;;;;17.58;11.77;;;;;;;12.08;82.98;100516.88;4986504;28;20033;-54
2023/04/23 10:42:00;;;;;;;17.05;11.05;;;;;;;12.06;82.38;100514.34;4983538;28;20081;-49
2023/04/23 10:44:34;;;;;;;14.13;9.18;;;;;;;11.81;80.20;100520.09;4985157;28;20050;-50
2023/04/23 10:47:01;;;;;;;14.27;10.10;;;;;;;11.89;79.88;100523.19;4988423;28;20592;-51
2023/04/23 10:49:30;;;;;;;16.42;10.25;;;;;;;11.85;79.25;100529.59;4989266;28;20330;-51
2023/04/23 10:52:00;;;;;;;17.92;11.70;;;;;;;11.84;78.38;100530.53;4989509;28;20118;-49
2023/04/23 10:54:30;;;;;;;15.38;9.93;;;;;;;11.59;78.18;100520.41;4991690;28;20038;-50
2023/04/23 10:57:03;;;;;;;10.00;7.25;;;;;;;11.50;75.15;100513.81;4993624;28;20046;-49
2023/04/23 10:59:33;;;;;;;12.73;7.13;;;;;;;11.47;77.97;100535.13;4991689;28;20041;-49
2023/04/23 11:02:10;;;;;;;10.05;6.97;;;;;;;11.08;76.95;100528.34;4993549;28;20092;-50
2023/04/23 11:04:41;;;;;;;10.07;5.75;;;;;;;11.04;76.35;100532.09;4992583;28;20097;-49
2023/04/23 11:07:07;;;;;;;8.97;6.27;;;;;;;11.23;74.95;100528.47;4990242;28;20034;-50
2023/04/23 11:09:45;;;;;;;8.73;6.05;;;;;;;11.35;73.96;100519.91;4985057;28;20289;-50
2023/04/23 11:12:28;;;;;;;11.00;6.72;;;;;;;11.39;76.67;100524.97;4988572;28;20116;-49
2023/04/23 11:14:54;;;;;;;9.40;5.28;;;;;;;11.44;73.27;100524.69;4992083;28;20485;-49
2023/04/23 11:17:42;;;;;;;7.93;5.53;;;;;;;11.69;73.25;100520.78;4992617;28;20046;-50
2023/04/23 11:20:12;;;;;;;10.32;6.28;;;;;;;12.01;71.73;100515.53;4985152;28;20031;-49